Airfield :
LOGIN :

Register | Disclaimer

   EN    FR    IT 

 










Legend :    VFR   Marginal VFR   IFR   Intensive IFR   Very Intensive IFR
Visi :
Ceiling :
>= 8 km
>= 3000ft
5 to 8 km
1000 to 3000 ft
1500m to 5 km
500 to 1000 ft
800 to 1500m
200 to 500 ft
< 800m
< 200 ft
Symbols :   Thunderstorms  Fog  Heavy snow  Heavy precipitations  Wind > 20 kt
SIGMETs :     Misc.  Thunderstorms  Icing  Turbulence  Mountain Waves  Volcanic Ashes






- Airport Elevation : 220 ft
- IATA code : CWL


EGFF - Cardiff Rhoose

CURRENT METAR :
  • 171820Z AUTO 24005KT 9999 SCT022/// BKN028/// BKN042/// //////TCU 04/03 Q1017

EXPIRED METARs :
  • 171750Z 23005KT 9999 -SHRA SCT024TCU BKN044 04/04 Q1016
  • 171720Z 24005KT 9999 SCT036TCU BKN044 04/03 Q1016
  • 171650Z 30005KT 9999 VCSH SCT019CB SCT026 BKN033 04/03 Q1016
  • 171620Z 30011KT 8000 -SHRA FEW014TCU SCT019 BKN029 04/03 Q1015
  • 171550Z 25016G29KT 6000 -SHRAGS SCT020CB BKN026 BKN035 06/03 Q1015

TAF TAF EGFF
Valid from the 17 at 18:00 until the 18 at 18:00 UTC


171701Z 1718/1818 28010KT 9999 SCT024
TEMPO 1718/1722 29016G26KT 7000 SHRA
BECMG 1804/1807 VRB04KT
PROB30 1805/1810 4000 MIFG BR
ATIS : +44 1446 729 319



MET'MAP, your aeronautical weather chart ! - Copyright ORBIFLY December 2007 - Disclaimer

ORBIFLY MET'MAP TEAM :

Programming & Development : Alexandra Zaïnal
Concept & original design : Baudouin d'Aumeries
Assistance for programming : Marc-Olivier Méhu
Technical & hardware support : Manuel Goepfert

Contact : metmap@orbifly.com




SOURCES & CREDITS :

   NOAA